createdAt,value
2022-09-27T00:01:39.976Z,38.11
2022-09-27T00:06:47.028Z,38.14
2022-09-27T00:11:54.206Z,38.15
2022-09-27T00:17:01.470Z,38.16
2022-09-27T00:22:08.620Z,38.15
2022-09-27T00:27:15.776Z,38.15
2022-09-27T00:32:22.989Z,38.08
2022-09-27T00:37:30.156Z,38.14
2022-09-27T00:42:37.365Z,38.14
2022-09-27T00:47:44.629Z,38.20
2022-09-27T00:52:51.837Z,38.21
2022-09-27T00:57:59.010Z,38.30
2022-09-27T01:03:06.236Z,38.36
2022-09-27T01:08:13.412Z,38.39
2022-09-27T01:13:20.685Z,38.40
2022-09-27T01:18:27.999Z,38.43
2022-09-27T01:23:35.151Z,38.48
2022-09-27T01:28:42.335Z,38.48
2022-09-27T01:33:49.615Z,38.45
2022-09-27T01:38:56.852Z,38.48
2022-09-27T01:44:04.059Z,38.53
2022-09-27T01:49:11.291Z,38.54
2022-09-27T01:54:18.465Z,38.55
2022-09-27T01:59:25.689Z,38.47
2022-09-27T02:04:32.913Z,38.59
2022-09-27T02:09:40.046Z,38.61
2022-09-27T02:14:47.285Z,38.69
2022-09-27T02:19:54.631Z,38.73
2022-09-27T02:25:01.785Z,38.78
2022-09-27T02:30:09.028Z,38.69
2022-09-27T02:35:16.258Z,38.64
2022-09-27T02:40:23.566Z,38.55
2022-09-27T02:45:30.635Z,38.66
2022-09-27T02:50:37.866Z,38.79
2022-09-27T02:55:45.060Z,38.62
2022-09-27T03:00:52.349Z,38.51
2022-09-27T03:05:59.560Z,38.57
2022-09-27T03:11:06.735Z,38.58
2022-09-27T03:16:13.951Z,38.50
2022-09-27T03:21:21.243Z,38.59
2022-09-27T03:26:28.478Z,38.51
2022-09-27T03:31:35.761Z,38.49
2022-09-27T03:36:42.997Z,38.40
2022-09-27T03:41:50.232Z,38.33
2022-09-27T03:46:57.482Z,38.32
2022-09-27T03:52:04.724Z,38.30
2022-09-27T03:57:11.909Z,38.25
2022-09-27T04:02:19.149Z,38.24
2022-09-27T04:07:26.287Z,38.23
2022-09-27T04:12:33.519Z,38.19
2022-09-27T04:17:40.716Z,38.23
2022-09-27T04:22:47.955Z,38.19
2022-09-27T04:27:55.247Z,38.16
2022-09-27T04:33:02.477Z,38.13
2022-09-27T04:38:09.768Z,38.12
2022-09-27T04:43:16.967Z,37.94
2022-09-27T04:48:24.312Z,38.01
2022-09-27T04:53:31.695Z,37.96
2022-09-27T04:58:38.877Z,37.91
2022-09-27T05:03:46.569Z,37.88
2022-09-27T05:08:53.832Z,37.86
2022-09-27T05:14:01.058Z,37.87
2022-09-27T05:19:09.223Z,37.87
2022-09-27T05:24:16.352Z,37.83
2022-09-27T05:29:23.530Z,37.78
2022-09-27T05:34:30.727Z,37.72
2022-09-27T05:39:37.970Z,37.69
2022-09-27T05:44:45.134Z,37.67
2022-09-27T05:49:52.312Z,37.61
2022-09-27T05:54:59.557Z,37.60
2022-09-27T06:00:07.260Z,37.70
2022-09-27T06:05:14.484Z,37.41
2022-09-27T06:10:21.696Z,37.48
2022-09-27T06:15:28.828Z,37.43
2022-09-27T06:20:36.078Z,37.43
2022-09-27T06:25:43.301Z,37.37
2022-09-27T06:31:04.615Z,37.68
2022-09-27T06:36:11.764Z,37.59
2022-09-27T06:41:18.941Z,37.34
2022-09-27T06:46:26.170Z,37.33
2022-09-27T06:51:33.350Z,36.65
2022-09-27T06:56:40.629Z,35.04
2022-09-27T07:01:47.993Z,36.79
2022-09-27T07:06:55.253Z,36.59
2022-09-27T07:12:02.505Z,36.69
2022-09-27T07:17:09.656Z,36.94
2022-09-27T07:22:16.869Z,36.86
2022-09-27T07:27:24.101Z,36.83
2022-09-27T07:32:31.274Z,36.80
2022-09-27T07:37:38.489Z,36.79
2022-09-27T07:42:46.017Z,36.81
2022-09-27T07:47:53.193Z,36.73
2022-09-27T07:53:00.384Z,36.71
2022-09-27T07:58:07.815Z,36.94
2022-09-27T08:03:15.040Z,36.81
2022-09-27T08:08:22.255Z,37.36
2022-09-27T08:13:29.655Z,37.05
2022-09-27T08:18:37.107Z,37.02
2022-09-27T08:23:44.352Z,37.45
2022-09-27T08:28:51.745Z,37.61
2022-09-27T08:33:58.866Z,37.00
2022-09-27T08:39:06.072Z,36.26
2022-09-27T08:44:13.651Z,37.55
2022-09-27T08:49:23.486Z,35.69
2022-09-27T08:54:30.679Z,35.72
2022-09-27T08:59:37.956Z,36.35
2022-09-27T09:04:45.165Z,35.58
2022-09-27T09:09:52.561Z,36.41
2022-09-27T09:14:59.908Z,36.03
2022-09-27T09:20:06.977Z,36.16
2022-09-27T09:25:14.183Z,36.20
2022-09-27T09:30:21.591Z,36.33
2022-09-27T09:35:28.641Z,36.17
2022-09-27T09:40:35.859Z,36.16
2022-09-27T09:45:43.105Z,36.04
2022-09-27T09:50:50.207Z,36.29
2022-09-27T09:55:57.428Z,36.28
2022-09-27T10:01:04.908Z,36.30
2022-09-27T10:06:26.797Z,36.38
2022-09-27T10:11:33.988Z,35.57
2022-09-27T10:16:41.308Z,36.36
2022-09-27T10:21:48.402Z,34.90
2022-09-27T10:26:55.606Z,35.29
2022-09-27T10:32:02.818Z,35.52
2022-09-27T10:37:10.027Z,35.45
2022-09-27T10:42:17.228Z,35.57
2022-09-27T10:47:24.472Z,35.26
2022-09-27T10:52:31.634Z,35.21
2022-09-27T10:57:42.968Z,35.38
2022-09-27T11:02:46.120Z,35.69
2022-09-27T11:07:53.862Z,35.90
2022-09-27T11:13:01.129Z,36.05
2022-09-27T11:18:08.472Z,36.17
2022-09-27T11:23:15.669Z,36.21
2022-09-27T11:28:22.881Z,36.12
2022-09-27T11:33:30.113Z,36.26
2022-09-27T11:38:53.947Z,36.42
2022-09-27T11:43:44.578Z,36.49
2022-09-27T11:48:51.817Z,36.18
2022-09-27T11:53:58.985Z,36.33
2022-09-27T11:59:06.184Z,36.40
2022-09-27T12:04:13.447Z,36.36
2022-09-27T12:09:20.569Z,36.40
2022-09-27T12:14:27.770Z,36.58
2022-09-27T12:19:35.043Z,36.32
2022-09-27T12:24:42.150Z,36.56
2022-09-27T12:29:49.414Z,36.89
2022-09-27T12:34:56.711Z,37.27
2022-09-27T12:40:04.002Z,37.05
2022-09-27T12:45:11.317Z,36.90
2022-09-27T12:50:18.606Z,36.97
2022-09-27T12:55:25.855Z,36.98
2022-09-27T13:00:33.098Z,37.17
2022-09-27T13:05:40.298Z,37.16
2022-09-27T13:10:47.486Z,37.25
2022-09-27T13:15:54.707Z,37.52
2022-09-27T13:21:01.917Z,37.71
2022-09-27T13:26:09.086Z,37.81
2022-09-27T13:31:16.683Z,37.79
2022-09-27T13:36:23.642Z,37.75
2022-09-27T13:41:31.023Z,37.68
2022-09-27T13:46:38.408Z,37.74
2022-09-27T13:51:45.753Z,37.72
2022-09-27T13:56:52.946Z,37.58
2022-09-27T14:02:00.306Z,37.67
2022-09-27T14:07:07.356Z,37.56
2022-09-27T14:12:14.550Z,37.45
2022-09-27T14:17:21.825Z,37.42
2022-09-27T14:22:29.050Z,37.37
2022-09-27T14:27:36.317Z,37.35
2022-09-27T14:32:43.578Z,37.33
2022-09-27T14:37:51.736Z,37.33
2022-09-27T14:42:58.971Z,37.38
2022-09-27T14:48:06.581Z,37.39
2022-09-27T14:53:13.846Z,37.45
2022-09-27T14:58:43.103Z,37.46
2022-09-27T15:03:28.428Z,37.47
2022-09-27T15:08:35.602Z,37.66
2022-09-27T15:13:42.761Z,37.56
2022-09-27T15:18:49.981Z,37.61
2022-09-27T15:23:57.198Z,37.62
2022-09-27T15:29:04.389Z,37.71
2022-09-27T15:34:11.559Z,37.72
2022-09-27T15:39:19.077Z,37.63
2022-09-27T15:44:25.964Z,37.62
2022-09-27T15:49:33.191Z,37.47
2022-09-27T15:54:40.435Z,37.42
2022-09-27T15:59:47.606Z,37.39
2022-09-27T16:04:54.781Z,37.36
2022-09-27T16:10:02.021Z,37.41
2022-09-27T16:15:09.252Z,37.44
2022-09-27T16:20:16.528Z,37.45
2022-09-27T16:25:23.828Z,37.45
2022-09-27T16:30:31.142Z,37.33
2022-09-27T16:35:38.379Z,37.34
2022-09-27T16:40:45.754Z,37.42
2022-09-27T16:45:52.842Z,37.46
2022-09-27T16:51:00.134Z,37.48
2022-09-27T16:56:07.380Z,37.55
2022-09-27T17:01:14.717Z,37.56
2022-09-27T17:06:21.814Z,37.58
2022-09-27T17:11:29.080Z,37.60
2022-09-27T17:16:36.257Z,37.61
2022-09-27T17:21:43.486Z,37.66
2022-09-27T17:26:50.700Z,37.76
2022-09-27T17:31:57.905Z,37.86
2022-09-27T17:37:05.080Z,37.74
2022-09-27T17:42:12.341Z,37.81
2022-09-27T17:47:19.653Z,37.82
2022-09-27T17:52:26.914Z,37.83
2022-09-27T17:57:34.121Z,37.87
2022-09-27T18:02:41.654Z,37.95
2022-09-27T18:07:48.871Z,38.18
2022-09-27T18:12:56.142Z,38.23
2022-09-27T18:18:03.365Z,38.16
2022-09-27T18:23:10.665Z,38.08
2022-09-27T18:28:17.899Z,38.07
2022-09-27T18:33:25.154Z,38.09
2022-09-27T18:38:34.421Z,37.71
2022-09-27T18:43:42.037Z,37.67
2022-09-27T18:48:49.526Z,37.46
2022-09-27T18:53:57.253Z,37.30
2022-09-27T18:59:04.889Z,37.25
2022-09-27T19:04:12.197Z,37.05
2022-09-27T19:09:19.614Z,36.94
2022-09-27T19:14:27.108Z,36.87
2022-09-27T19:19:34.596Z,36.60
2022-09-27T19:24:42.018Z,36.65
2022-09-27T19:29:49.588Z,36.64
2022-09-27T19:34:57.132Z,36.45
2022-09-27T19:40:05.063Z,36.43
2022-09-27T19:45:12.695Z,36.34
2022-09-27T19:50:20.081Z,36.29
2022-09-27T19:55:27.312Z,36.67
2022-09-27T20:00:34.580Z,36.72
2022-09-27T20:05:41.750Z,36.75
2022-09-27T20:10:49.306Z,36.94
2022-09-27T20:15:56.797Z,37.02
2022-09-27T20:21:04.226Z,37.05
2022-09-27T20:26:11.603Z,36.87
2022-09-27T20:31:19.055Z,36.96
2022-09-27T20:36:26.138Z,36.99
2022-09-27T20:41:33.380Z,36.78
2022-09-27T20:46:40.715Z,36.71
2022-09-27T20:51:47.781Z,36.47
2022-09-27T20:56:54.982Z,36.41
2022-09-27T21:02:02.260Z,36.21
2022-09-27T21:07:09.403Z,36.10
2022-09-27T21:12:16.684Z,36.28
2022-09-27T21:17:23.922Z,35.96
2022-09-27T21:22:31.095Z,35.83
2022-09-27T21:27:38.302Z,35.65
2022-09-27T21:32:45.546Z,35.50
2022-09-27T21:37:52.736Z,35.44
2022-09-27T21:42:59.923Z,35.43
2022-09-27T21:48:07.135Z,35.51
2022-09-27T21:53:14.306Z,35.33
2022-09-27T21:58:21.452Z,35.38
2022-09-27T22:03:28.638Z,35.11
2022-09-27T22:08:35.834Z,35.15
2022-09-27T22:13:43.041Z,35.01
2022-09-27T22:18:50.363Z,34.96
2022-09-27T22:23:57.465Z,34.94
2022-09-27T22:29:04.676Z,34.84
2022-09-27T22:34:11.868Z,34.95
2022-09-27T22:39:19.064Z,34.75
2022-09-27T22:44:26.260Z,34.62
2022-09-27T22:49:33.525Z,34.54
2022-09-27T22:54:40.656Z,34.50
2022-09-27T22:59:47.899Z,34.57
2022-09-27T23:04:55.123Z,34.47
2022-09-27T23:10:02.310Z,34.37
2022-09-27T23:15:09.492Z,34.41
2022-09-27T23:20:16.729Z,34.31
2022-09-27T23:25:23.908Z,34.12
2022-09-27T23:30:31.118Z,34.41
2022-09-27T23:35:38.368Z,34.45
2022-09-27T23:40:45.582Z,34.51
2022-09-27T23:45:52.701Z,34.56
2022-09-27T23:50:59.993Z,34.68
2022-09-27T23:56:07.181Z,34.84
